createdAt,value
2018-09-26T00:00:57.084Z,1029.47
2018-09-26T00:01:57.097Z,1029.49
2018-09-26T00:02:57.050Z,1029.46
2018-09-26T00:03:57.070Z,1029.46
2018-09-26T00:04:57.029Z,1029.44
2018-09-26T00:05:57.015Z,1029.43
2018-09-26T00:06:57.008Z,1029.44
2018-09-26T00:07:57.026Z,1029.48
2018-09-26T00:08:57.014Z,1029.49
2018-09-26T00:09:56.976Z,1029.54
2018-09-26T00:10:56.975Z,1029.54
2018-09-26T00:11:56.946Z,1029.57
2018-09-26T00:12:56.937Z,1029.58
2018-09-26T00:13:57.012Z,1029.63
2018-09-26T00:14:56.969Z,1029.61
2018-09-26T00:15:56.911Z,1029.56
2018-09-26T00:16:56.903Z,1029.64
2018-09-26T00:17:56.890Z,1029.68
2018-09-26T00:18:56.918Z,1029.63
2018-09-26T00:19:56.896Z,1029.66
2018-09-26T00:20:56.858Z,1029.64
2018-09-26T00:21:56.844Z,1029.66
2018-09-26T00:22:56.890Z,1029.63
2018-09-26T00:23:56.827Z,1029.63
2018-09-26T00:24:56.812Z,1029.58
2018-09-26T00:25:56.818Z,1029.55
2018-09-26T00:26:56.785Z,1029.53
2018-09-26T00:27:56.830Z,1029.53
2018-09-26T00:28:56.765Z,1029.50
2018-09-26T00:29:56.749Z,1029.51
2018-09-26T00:30:56.763Z,1029.52
2018-09-26T00:31:56.727Z,1029.49
2018-09-26T00:32:56.737Z,1029.51
2018-09-26T00:33:56.731Z,1029.49
2018-09-26T00:34:56.694Z,1029.56
2018-09-26T00:35:56.829Z,1029.56
2018-09-26T00:36:56.673Z,1029.57
2018-09-26T00:37:56.663Z,1029.59
2018-09-26T00:38:56.702Z,1029.59
2018-09-26T00:39:56.641Z,1029.51
2018-09-26T00:40:56.662Z,1029.50
2018-09-26T00:41:56.617Z,1029.46
2018-09-26T00:42:56.607Z,1029.49
2018-09-26T00:43:56.598Z,1029.43
2018-09-26T00:44:56.592Z,1029.46
2018-09-26T00:45:56.613Z,1029.45
2018-09-26T00:46:56.608Z,1029.41
2018-09-26T00:47:56.552Z,1029.39
2018-09-26T00:48:56.563Z,1029.42
2018-09-26T00:49:56.534Z,1029.37
2018-09-26T00:50:56.580Z,1029.38
2018-09-26T00:51:56.516Z,1029.34
2018-09-26T00:52:56.507Z,1029.34
2018-09-26T00:53:56.535Z,1029.34
2018-09-26T00:54:56.484Z,1029.31
2018-09-26T00:55:56.491Z,1029.34
2018-09-26T00:56:56.484Z,1029.33
2018-09-26T00:57:56.447Z,1029.36
2018-09-26T00:58:56.443Z,1029.36
2018-09-26T00:59:56.453Z,1029.35
2018-09-26T01:00:56.451Z,1029.40
2018-09-26T01:01:56.407Z,1029.42
2018-09-26T01:02:56.441Z,1029.44
2018-09-26T01:03:56.379Z,1029.54
2018-09-26T01:04:56.374Z,1029.55
2018-09-26T01:05:56.384Z,1029.59
2018-09-26T01:06:56.412Z,1029.61
2018-09-26T01:07:56.373Z,1029.57
2018-09-26T01:08:56.326Z,1029.53
2018-09-26T01:09:56.387Z,1029.59
2018-09-26T01:10:56.394Z,1029.50
2018-09-26T01:11:56.320Z,1029.50
2018-09-26T01:12:56.324Z,1029.45
2018-09-26T01:13:56.277Z,1029.44
2018-09-26T01:14:56.312Z,1029.47
2018-09-26T01:15:56.277Z,1029.49
2018-09-26T01:16:56.239Z,1029.47
2018-09-26T01:17:56.230Z,1029.42
2018-09-26T01:18:56.217Z,1029.42
2018-09-26T01:19:56.222Z,1029.33
2018-09-26T01:20:56.239Z,1029.32
2018-09-26T01:21:56.236Z,1029.28
2018-09-26T01:22:56.174Z,1029.23
2018-09-26T01:23:56.173Z,1029.24
2018-09-26T01:24:56.170Z,1029.19
2018-09-26T01:25:56.221Z,1029.17
2018-09-26T01:26:56.171Z,1029.14
2018-09-26T01:27:56.121Z,1029.12
2018-09-26T01:28:56.157Z,1029.14
2018-09-26T01:29:56.105Z,1029.10
2018-09-26T01:30:56.112Z,1029.11
2018-09-26T01:31:56.091Z,1029.07
2018-09-26T01:32:56.076Z,1029.03
2018-09-26T01:33:56.121Z,1028.97
2018-09-26T01:34:56.046Z,1028.95
2018-09-26T01:35:56.075Z,1028.93
2018-09-26T01:36:56.025Z,1028.85
2018-09-26T01:37:56.015Z,1028.86
2018-09-26T01:38:56.008Z,1028.86
2018-09-26T01:39:56.118Z,1028.80
2018-09-26T01:40:56.010Z,1028.82
2018-09-26T01:41:55.984Z,1028.80
2018-09-26T01:42:55.972Z,1028.85
2018-09-26T01:43:55.955Z,1028.77
2018-09-26T01:44:55.950Z,1028.75
2018-09-26T01:45:55.956Z,1028.77
2018-09-26T01:46:55.947Z,1028.73
2018-09-26T01:47:55.957Z,1028.75
2018-09-26T01:48:55.909Z,1028.70
2018-09-26T01:49:55.941Z,1028.70
2018-09-26T01:50:55.876Z,1028.66
2018-09-26T01:51:55.888Z,1028.63
2018-09-26T01:52:55.878Z,1028.58
2018-09-26T01:53:55.846Z,1028.54
2018-09-26T01:54:55.835Z,1028.53
2018-09-26T01:55:55.859Z,1028.53
2018-09-26T01:56:55.843Z,1028.47
2018-09-26T01:57:55.801Z,1028.48
2018-09-26T01:58:55.808Z,1028.43
2018-09-26T01:59:55.783Z,1028.41
2018-09-26T02:00:55.774Z,1028.40
2018-09-26T02:01:55.762Z,1028.37
2018-09-26T02:02:55.825Z,1028.36
2018-09-26T02:03:55.743Z,1028.41
2018-09-26T02:04:55.728Z,1028.30
2018-09-26T02:05:55.740Z,1028.32
2018-09-26T02:06:55.708Z,1028.31
2018-09-26T02:07:55.718Z,1028.32
2018-09-26T02:08:55.731Z,1028.32
2018-09-26T02:09:55.678Z,1028.36
2018-09-26T02:10:55.676Z,1028.36
2018-09-26T02:11:55.651Z,1028.38
2018-09-26T02:12:55.674Z,1028.37
2018-09-26T02:13:55.699Z,1028.38
2018-09-26T02:14:55.621Z,1028.41
2018-09-26T02:15:55.629Z,1028.41
2018-09-26T02:16:55.602Z,1028.44
2018-09-26T02:17:55.607Z,1028.47
2018-09-26T02:18:55.637Z,1028.46
2018-09-26T02:19:55.599Z,1028.50
2018-09-26T02:20:55.558Z,1028.51
2018-09-26T02:21:55.593Z,1028.46
2018-09-26T02:22:55.535Z,1028.50
2018-09-26T02:23:55.551Z,1028.50
2018-09-26T02:24:55.529Z,1028.51
2018-09-26T02:25:55.540Z,1028.47
2018-09-26T02:26:55.492Z,1028.55
2018-09-26T02:27:55.482Z,1028.56
2018-09-26T02:28:55.551Z,1028.57
2018-09-26T02:29:55.471Z,1028.62
2018-09-26T02:30:55.456Z,1028.60
2018-09-26T02:31:55.441Z,1028.66
2018-09-26T02:32:55.480Z,1028.67
2018-09-26T02:33:55.425Z,1028.68
2018-09-26T02:34:55.443Z,1028.72
2018-09-26T02:35:55.403Z,1028.72
2018-09-26T02:36:55.405Z,1028.73
2018-09-26T02:37:55.425Z,1028.75
2018-09-26T02:38:55.433Z,1028.71
2018-09-26T02:39:55.387Z,1028.66
2018-09-26T02:40:55.349Z,1028.68
2018-09-26T02:41:55.337Z,1028.65
2018-09-26T02:42:55.345Z,1028.71
2018-09-26T02:43:55.317Z,1028.70
2018-09-26T02:44:55.331Z,1028.73
2018-09-26T02:45:55.317Z,1028.80
2018-09-26T02:46:55.282Z,1028.77
2018-09-26T02:47:55.270Z,1028.78
2018-09-26T02:48:55.261Z,1028.83
2018-09-26T02:49:55.287Z,1028.86
2018-09-26T02:50:55.256Z,1028.87
2018-09-26T02:51:55.235Z,1028.94
2018-09-26T02:52:55.234Z,1028.92
2018-09-26T02:53:55.222Z,1028.91
2018-09-26T02:54:55.204Z,1028.91
2018-09-26T02:55:55.339Z,1028.85
2018-09-26T02:56:55.177Z,1028.84
2018-09-26T02:57:55.176Z,1028.78
2018-09-26T02:58:55.156Z,1028.78
2018-09-26T02:59:55.163Z,1028.75
2018-09-26T03:00:55.184Z,1028.70
2018-09-26T03:01:55.156Z,1028.75
2018-09-26T03:02:55.122Z,1028.74
2018-09-26T03:03:55.122Z,1028.69
2018-09-26T03:04:55.119Z,1028.72
2018-09-26T03:05:55.080Z,1028.71
2018-09-26T03:06:55.092Z,1028.63
2018-09-26T03:07:55.164Z,1028.70
2018-09-26T03:08:55.157Z,1028.62
2018-09-26T03:09:55.054Z,1028.67
2018-09-26T03:10:55.109Z,1028.64
2018-09-26T03:11:55.069Z,1028.64
2018-09-26T03:12:55.006Z,1028.62
2018-09-26T03:13:55.000Z,1028.66
2018-09-26T03:14:55.012Z,1028.64
2018-09-26T03:15:54.974Z,1028.65
2018-09-26T03:16:55.023Z,1028.72
2018-09-26T03:17:54.956Z,1028.67
2018-09-26T03:18:54.947Z,1028.72
2018-09-26T03:19:54.977Z,1028.76
2018-09-26T03:20:54.919Z,1028.81
2018-09-26T03:21:54.912Z,1028.82
2018-09-26T03:22:54.931Z,1028.82
2018-09-26T03:23:54.903Z,1028.81
2018-09-26T03:24:54.981Z,1028.76
2018-09-26T03:25:54.889Z,1028.78
2018-09-26T03:26:54.864Z,1028.71
2018-09-26T03:27:54.881Z,1028.67
2018-09-26T03:28:54.901Z,1028.68
2018-09-26T03:29:54.824Z,1028.66
2018-09-26T03:30:54.813Z,1028.57
2018-09-26T03:31:54.804Z,1028.52
2018-09-26T03:32:54.795Z,1028.46
2018-09-26T03:33:54.815Z,1028.44
2018-09-26T03:34:54.871Z,1028.37
2018-09-26T03:35:54.763Z,1028.36
2018-09-26T03:36:54.750Z,1028.36
2018-09-26T03:37:54.739Z,1028.42
2018-09-26T03:38:54.783Z,1028.42
2018-09-26T03:39:54.744Z,1028.45
2018-09-26T03:40:54.708Z,1028.50
2018-09-26T03:41:54.702Z,1028.51
2018-09-26T03:42:54.728Z,1028.56
2018-09-26T03:43:54.767Z,1028.54
2018-09-26T03:44:54.744Z,1028.54
2018-09-26T03:45:54.687Z,1028.56
2018-09-26T03:46:54.642Z,1028.56
2018-09-26T03:47:54.705Z,1028.58
2018-09-26T03:48:54.620Z,1028.56
2018-09-26T03:49:54.648Z,1028.54
2018-09-26T03:50:54.616Z,1028.52
2018-09-26T03:51:54.596Z,1028.54
2018-09-26T03:52:54.580Z,1028.61
2018-09-26T03:53:54.658Z,1028.64
2018-09-26T03:54:54.585Z,1028.64
2018-09-26T03:55:54.605Z,1028.66
2018-09-26T03:56:54.538Z,1028.58
2018-09-26T03:57:54.546Z,1028.61
2018-09-26T03:58:54.535Z,1028.61
2018-09-26T03:59:54.544Z,1028.57
2018-09-26T04:00:54.505Z,1028.59
2018-09-26T04:01:54.490Z,1028.58
2018-09-26T04:02:54.470Z,1028.59
2018-09-26T04:03:54.471Z,1028.63
2018-09-26T04:04:54.496Z,1028.66
2018-09-26T04:05:54.516Z,1028.64
2018-09-26T04:06:54.445Z,1028.65
2018-09-26T04:07:54.479Z,1028.60
2018-09-26T04:08:54.455Z,1028.58
2018-09-26T04:09:54.396Z,1028.61
2018-09-26T04:10:54.436Z,1028.59
2018-09-26T04:11:54.462Z,1028.56
2018-09-26T04:12:54.411Z,1028.59
2018-09-26T04:13:54.354Z,1028.57
2018-09-26T04:14:54.349Z,1028.59
2018-09-26T04:15:54.335Z,1028.55
2018-09-26T04:16:54.392Z,1028.50
2018-09-26T04:17:54.322Z,1028.47
2018-09-26T04:18:54.299Z,1028.54
2018-09-26T04:19:54.322Z,1028.56
2018-09-26T04:20:54.287Z,1028.65
2018-09-26T04:21:54.298Z,1028.70
2018-09-26T04:22:54.264Z,1028.75
2018-09-26T04:23:54.249Z,1028.73
2018-09-26T04:24:54.237Z,1028.75
2018-09-26T04:25:54.231Z,1028.73
2018-09-26T04:26:54.541Z,1028.72
2018-09-26T04:27:54.253Z,1028.65
2018-09-26T04:28:54.267Z,1028.51
2018-09-26T04:29:54.186Z,1028.51
2018-09-26T04:30:54.197Z,1028.47
2018-09-26T04:31:54.302Z,1028.48
2018-09-26T04:32:54.350Z,1028.47
2018-09-26T04:33:54.252Z,1028.51
2018-09-26T04:34:54.130Z,1028.52
2018-09-26T04:35:54.128Z,1028.54
2018-09-26T04:36:54.108Z,1028.62
2018-09-26T04:37:54.171Z,1028.60
2018-09-26T04:38:54.286Z,1028.69
2018-09-26T04:39:54.082Z,1028.69
2018-09-26T04:40:54.071Z,1028.70
2018-09-26T04:41:54.106Z,1028.73
2018-09-26T04:42:54.080Z,1028.73
2018-09-26T04:43:54.040Z,1028.73
2018-09-26T04:44:54.040Z,1028.74
2018-09-26T04:45:54.027Z,1028.73
2018-09-26T04:46:54.001Z,1028.78
2018-09-26T04:47:53.993Z,1028.77
2018-09-26T04:48:54.011Z,1028.77
2018-09-26T04:49:54.005Z,1028.79
2018-09-26T04:50:53.974Z,1028.82
2018-09-26T04:51:53.952Z,1028.79
2018-09-26T04:52:53.956Z,1028.80
2018-09-26T04:53:53.985Z,1028.75
2018-09-26T04:54:53.917Z,1028.77
2018-09-26T04:55:53.918Z,1028.71
2018-09-26T04:56:53.899Z,1028.72
2018-09-26T04:57:53.972Z,1028.71
2018-09-26T04:58:53.932Z,1028.74
2018-09-26T04:59:53.881Z,1028.79
2018-09-26T05:00:53.853Z,1028.72
2018-09-26T05:01:53.850Z,1028.72
2018-09-26T05:02:53.867Z,1028.75
2018-09-26T05:03:53.877Z,1028.66
2018-09-26T05:04:53.813Z,1028.66
2018-09-26T05:05:53.800Z,1028.67
2018-09-26T05:06:53.801Z,1028.67
2018-09-26T05:07:53.781Z,1028.70
2018-09-26T05:08:53.795Z,1028.71
2018-09-26T05:09:53.871Z,1028.66
2018-09-26T05:10:53.749Z,1028.72
2018-09-26T05:11:53.746Z,1028.76
2018-09-26T05:12:53.782Z,1028.78
2018-09-26T05:13:53.721Z,1028.81
2018-09-26T05:14:53.722Z,1028.87
2018-09-26T05:15:53.737Z,1028.81
2018-09-26T05:16:53.692Z,1028.78
2018-09-26T05:17:53.679Z,1028.71
2018-09-26T05:18:53.678Z,1028.69
2018-09-26T05:19:53.674Z,1028.71
2018-09-26T05:20:53.679Z,1028.75
2018-09-26T05:21:53.635Z,1028.81
2018-09-26T05:22:53.780Z,1028.86
2018-09-26T05:23:53.636Z,1028.93
2018-09-26T05:24:53.603Z,1028.89
2018-09-26T05:25:53.629Z,1028.84
2018-09-26T05:26:53.616Z,1028.76
2018-09-26T05:27:53.569Z,1028.79
2018-09-26T05:28:53.556Z,1028.80
2018-09-26T05:29:53.575Z,1028.81
2018-09-26T05:30:53.579Z,1028.84
2018-09-26T05:31:53.525Z,1028.85
2018-09-26T05:32:53.530Z,1028.85
2018-09-26T05:33:53.507Z,1028.85
2018-09-26T05:34:53.495Z,1028.85
2018-09-26T05:35:53.512Z,1028.81
2018-09-26T05:36:53.504Z,1028.83
2018-09-26T05:37:53.467Z,1028.89
2018-09-26T05:38:53.452Z,1028.85
2018-09-26T05:39:53.445Z,1028.89
2018-09-26T05:40:53.495Z,1028.85
2018-09-26T05:41:53.515Z,1028.86
2018-09-26T05:42:53.433Z,1028.80
2018-09-26T05:43:53.402Z,1028.78
2018-09-26T05:44:53.395Z,1028.69
2018-09-26T05:45:53.380Z,1028.74
2018-09-26T05:46:53.417Z,1028.66
2018-09-26T05:47:53.384Z,1028.73
2018-09-26T05:48:53.358Z,1028.70
2018-09-26T05:49:53.351Z,1028.70
2018-09-26T05:50:53.325Z,1028.70
2018-09-26T05:51:53.312Z,1028.67
2018-09-26T05:52:53.329Z,1028.69
2018-09-26T05:53:53.291Z,1028.66
2018-09-26T05:54:53.307Z,1028.65
2018-09-26T05:55:53.269Z,1028.65
2018-09-26T05:56:53.286Z,1028.65
2018-09-26T05:57:53.283Z,1028.68
2018-09-26T05:58:53.240Z,1028.66
2018-09-26T05:59:53.226Z,1028.66
2018-09-26T06:00:53.222Z,1028.63
2018-09-26T06:01:53.226Z,1028.63
2018-09-26T06:02:53.230Z,1028.59
2018-09-26T06:03:53.190Z,1028.58
2018-09-26T06:04:53.199Z,1028.48
2018-09-26T06:05:53.171Z,1028.48
2018-09-26T06:06:53.165Z,1028.51
2018-09-26T06:07:53.144Z,1028.46
2018-09-26T06:08:53.168Z,1028.44
2018-09-26T06:09:53.130Z,1028.47
2018-09-26T06:10:53.110Z,1028.45
2018-09-26T06:11:53.100Z,1028.41
2018-09-26T06:12:53.186Z,1028.39
2018-09-26T06:13:53.078Z,1028.43
2018-09-26T06:14:53.108Z,1028.44
2018-09-26T06:15:53.065Z,1028.47
2018-09-26T06:16:53.046Z,1028.46
2018-09-26T06:17:53.041Z,1028.46
2018-09-26T06:18:53.029Z,1028.47
2018-09-26T06:19:53.036Z,1028.45
2018-09-26T06:20:53.005Z,1028.43
2018-09-26T06:21:52.996Z,1028.43
2018-09-26T06:22:53.026Z,1028.45
2018-09-26T06:23:52.978Z,1028.45
2018-09-26T06:24:53.017Z,1028.52
2018-09-26T06:25:52.967Z,1028.54
2018-09-26T06:26:52.940Z,1028.57
2018-09-26T06:27:52.936Z,1028.58
2018-09-26T06:28:52.927Z,1028.60
2018-09-26T06:29:52.905Z,1028.59
2018-09-26T06:30:52.927Z,1028.66
2018-09-26T06:31:52.899Z,1028.65
2018-09-26T06:32:52.874Z,1028.64
2018-09-26T06:33:52.874Z,1028.68
2018-09-26T06:34:52.868Z,1028.65
2018-09-26T06:35:52.919Z,1028.63
2018-09-26T06:36:52.836Z,1028.60
2018-09-26T06:37:52.820Z,1028.58
2018-09-26T06:38:52.838Z,1028.55
2018-09-26T06:39:52.833Z,1028.54
2018-09-26T06:40:52.788Z,1028.60
2018-09-26T06:41:52.816Z,1028.56
2018-09-26T06:42:52.765Z,1028.60
2018-09-26T06:43:52.752Z,1028.62
2018-09-26T06:44:52.756Z,1028.65
2018-09-26T06:45:52.732Z,1028.67
2018-09-26T06:46:52.725Z,1028.69
2018-09-26T06:47:52.742Z,1028.73
2018-09-26T06:48:52.704Z,1028.77
2018-09-26T06:49:52.688Z,1028.72
2018-09-26T06:50:52.695Z,1028.68
2018-09-26T06:51:52.665Z,1028.71
2018-09-26T06:52:52.679Z,1028.68
2018-09-26T06:53:52.705Z,1028.70
2018-09-26T06:54:52.633Z,1028.72
2018-09-26T06:55:52.622Z,1028.76
2018-09-26T06:56:52.613Z,1028.75
2018-09-26T06:57:52.631Z,1028.70
2018-09-26T06:58:52.604Z,1028.72
2018-09-26T06:59:52.578Z,1028.73
2018-09-26T07:00:52.569Z,1028.67
2018-09-26T07:01:52.560Z,1028.68
2018-09-26T07:02:52.567Z,1028.70
2018-09-26T07:03:52.541Z,1028.70
2018-09-26T07:04:52.525Z,1028.67
2018-09-26T07:05:52.576Z,1028.69
2018-09-26T07:06:52.511Z,1028.77
2018-09-26T07:07:52.521Z,1028.78
2018-09-26T07:08:52.487Z,1028.73
2018-09-26T07:09:52.478Z,1028.73
2018-09-26T07:10:52.473Z,1028.71
2018-09-26T07:11:52.459Z,1028.71
2018-09-26T07:12:52.477Z,1028.73
2018-09-26T07:13:52.482Z,1028.74
2018-09-26T07:14:52.415Z,1028.73
2018-09-26T07:15:52.418Z,1028.65
2018-09-26T07:16:52.404Z,1028.64
2018-09-26T07:17:52.394Z,1028.62
2018-09-26T07:18:52.440Z,1028.65
2018-09-26T07:19:52.374Z,1028.62
2018-09-26T07:20:52.393Z,1028.61
2018-09-26T07:21:52.346Z,1028.60
2018-09-26T07:22:52.331Z,1028.62
2018-09-26T07:23:52.338Z,1028.62
2018-09-26T07:24:52.355Z,1028.64
2018-09-26T07:25:52.299Z,1028.63
2018-09-26T07:26:52.288Z,1028.62
2018-09-26T07:27:52.275Z,1028.64
2018-09-26T07:28:52.266Z,1028.66
2018-09-26T07:29:52.276Z,1028.64
2018-09-26T07:30:52.246Z,1028.59
2018-09-26T07:31:52.314Z,1028.56
2018-09-26T07:32:52.265Z,1028.57
2018-09-26T07:33:52.217Z,1028.58
2018-09-26T07:34:52.238Z,1028.52
2018-09-26T07:35:52.201Z,1028.47
2018-09-26T07:36:52.181Z,1028.53
2018-09-26T07:37:52.200Z,1028.51
2018-09-26T07:38:52.156Z,1028.50
2018-09-26T07:39:52.172Z,1028.57
2018-09-26T07:40:52.158Z,1028.52
2018-09-26T07:41:52.123Z,1028.63
2018-09-26T07:42:52.127Z,1028.65
2018-09-26T07:43:52.127Z,1028.60
2018-09-26T07:44:52.098Z,1028.58
2018-09-26T07:45:52.182Z,1028.62
2018-09-26T07:46:52.068Z,1028.59
2018-09-26T07:47:52.064Z,1028.55
2018-09-26T07:48:52.047Z,1028.47
2018-09-26T07:49:52.071Z,1028.36
2018-09-26T07:50:52.044Z,1028.34
2018-09-26T07:51:52.040Z,1028.34
2018-09-26T07:52:52.041Z,1028.35
2018-09-26T07:53:51.996Z,1028.36
2018-09-26T07:54:52.014Z,1028.38
2018-09-26T07:55:51.977Z,1028.40
2018-09-26T07:56:52.006Z,1028.42
2018-09-26T07:57:51.975Z,1028.39
2018-09-26T07:58:51.940Z,1028.43
2018-09-26T07:59:51.932Z,1028.42
2018-09-26T08:00:51.922Z,1028.46
2018-09-26T08:01:51.946Z,1028.48
2018-09-26T08:02:51.925Z,1028.55
2018-09-26T08:03:51.885Z,1028.56
2018-09-26T08:04:51.874Z,1028.62
2018-09-26T08:05:51.909Z,1028.67
2018-09-26T08:06:51.850Z,1028.72
2018-09-26T08:07:51.897Z,1028.71
2018-09-26T08:08:51.834Z,1028.72
2018-09-26T08:09:51.820Z,1028.66
2018-09-26T08:10:51.808Z,1028.68
2018-09-26T08:11:51.820Z,1028.61
2018-09-26T08:12:51.817Z,1028.57
2018-09-26T08:13:51.773Z,1028.52
2018-09-26T08:14:51.763Z,1028.45
2018-09-26T08:15:51.756Z,1028.47
2018-09-26T08:16:51.746Z,1028.49
2018-09-26T08:17:51.753Z,1028.53
2018-09-26T08:18:51.757Z,1028.49
2018-09-26T08:19:51.721Z,1028.53
2018-09-26T08:20:51.698Z,1028.49
2018-09-26T08:21:51.694Z,1028.47
2018-09-26T08:22:51.699Z,1028.49
2018-09-26T08:23:51.771Z,1028.52
2018-09-26T08:24:51.664Z,1028.54
2018-09-26T08:25:51.706Z,1028.55
2018-09-26T08:26:51.648Z,1028.61
2018-09-26T08:27:51.679Z,1028.60
2018-09-26T08:28:51.611Z,1028.60
2018-09-26T08:29:51.611Z,1028.58
2018-09-26T08:30:51.600Z,1028.50
2018-09-26T08:31:51.578Z,1028.49
2018-09-26T08:32:51.580Z,1028.49
2018-09-26T08:33:51.581Z,1028.47
2018-09-26T08:34:51.549Z,1028.51
2018-09-26T08:35:51.541Z,1028.47
2018-09-26T08:36:51.526Z,1028.53
2018-09-26T08:37:51.543Z,1028.52
2018-09-26T08:38:51.503Z,1028.46
2018-09-26T08:39:51.494Z,1028.48
2018-09-26T08:40:51.504Z,1028.44
2018-09-26T08:41:51.485Z,1028.44
2018-09-26T08:42:51.461Z,1028.44
2018-09-26T08:43:51.543Z,1028.41
2018-09-26T08:44:51.435Z,1028.39
2018-09-26T08:45:51.446Z,1028.41
2018-09-26T08:46:51.415Z,1028.33
2018-09-26T08:47:51.406Z,1028.34
2018-09-26T08:48:51.416Z,1028.28
2018-09-26T08:49:51.385Z,1028.26
2018-09-26T08:50:51.370Z,1028.31
2018-09-26T08:51:51.361Z,1028.29
2018-09-26T08:52:51.381Z,1028.35
2018-09-26T08:53:51.433Z,1028.41
2018-09-26T08:54:51.330Z,1028.41
2018-09-26T08:55:51.316Z,1028.45
2018-09-26T08:56:51.307Z,1028.35
2018-09-26T08:57:51.303Z,1028.37
2018-09-26T08:58:51.299Z,1028.37
2018-09-26T08:59:51.376Z,1028.35
2018-09-26T09:00:51.265Z,1028.34
2018-09-26T09:01:51.250Z,1028.35
2018-09-26T09:02:51.293Z,1028.32
2018-09-26T09:03:51.251Z,1028.30
2018-09-26T09:04:51.222Z,1028.35
2018-09-26T09:05:51.238Z,1028.34
2018-09-26T09:06:51.264Z,1028.30
2018-09-26T09:07:51.220Z,1028.35
2018-09-26T09:08:51.216Z,1028.40
2018-09-26T09:09:51.168Z,1028.39
2018-09-26T09:10:51.183Z,1028.35
2018-09-26T09:11:51.151Z,1028.35
2018-09-26T09:12:51.191Z,1028.34
2018-09-26T09:13:51.133Z,1028.32
2018-09-26T09:14:51.252Z,1028.36
2018-09-26T09:15:51.132Z,1028.30
2018-09-26T09:16:51.115Z,1028.27
2018-09-26T09:17:51.130Z,1028.29
2018-09-26T09:18:51.078Z,1028.31
2018-09-26T09:19:51.070Z,1028.27
2018-09-26T09:20:51.044Z,1028.24
2018-09-26T09:21:51.033Z,1028.24
2018-09-26T09:22:51.063Z,1028.24
2018-09-26T09:23:51.142Z,1028.21
2018-09-26T09:24:51.001Z,1028.22
2018-09-26T09:25:51.009Z,1028.22
2018-09-26T09:26:51.000Z,1028.20
2018-09-26T09:27:51.051Z,1028.15
2018-09-26T09:28:50.974Z,1028.12
2018-09-26T09:29:50.971Z,1028.11
2018-09-26T09:30:50.937Z,1028.11
2018-09-26T09:31:50.946Z,1028.13
2018-09-26T09:32:50.917Z,1028.11
2018-09-26T09:33:50.932Z,1028.06
2018-09-26T09:34:50.900Z,1028.12
2018-09-26T09:35:50.894Z,1028.07
2018-09-26T09:36:50.873Z,1028.09
2018-09-26T09:37:50.858Z,1028.11
2018-09-26T09:38:50.884Z,1028.14
2018-09-26T09:39:50.848Z,1028.14
2018-09-26T09:40:50.829Z,1028.09
2018-09-26T09:41:50.849Z,1028.13
2018-09-26T09:42:50.803Z,1028.12
2018-09-26T09:43:50.821Z,1028.10
2018-09-26T09:44:50.806Z,1028.05
2018-09-26T09:45:50.776Z,1028.09
2018-09-26T09:46:50.825Z,1028.08
2018-09-26T09:47:50.762Z,1028.01
2018-09-26T09:48:50.756Z,1027.98
2018-09-26T09:49:50.771Z,1028.04
2018-09-26T09:50:50.717Z,1028.06
2018-09-26T09:51:50.739Z,1028.08
2018-09-26T09:52:50.699Z,1028.07
2018-09-26T09:53:50.695Z,1028.05
2018-09-26T09:54:50.693Z,1028.10
2018-09-26T09:55:50.684Z,1028.13
2018-09-26T09:56:50.686Z,1028.13
2018-09-26T09:57:50.652Z,1028.13
2018-09-26T09:58:50.657Z,1028.15
2018-09-26T09:59:50.621Z,1028.14
2018-09-26T10:00:50.658Z,1028.11
2018-09-26T10:01:50.600Z,1028.17
2018-09-26T10:02:50.641Z,1028.14
2018-09-26T10:03:50.657Z,1028.12
2018-09-26T10:04:50.572Z,1028.09
2018-09-26T10:05:50.555Z,1028.12
2018-09-26T10:06:50.597Z,1028.14
2018-09-26T10:07:50.533Z,1028.11
2018-09-26T10:08:50.595Z,1028.11
2018-09-26T10:09:50.514Z,1028.09
2018-09-26T10:10:50.499Z,1028.03
2018-09-26T10:11:50.591Z,1028.03
2018-09-26T10:12:50.481Z,1028.05
2018-09-26T10:13:50.468Z,1027.94
2018-09-26T10:14:50.457Z,1028.00
2018-09-26T10:15:50.453Z,1028.03
2018-09-26T10:16:50.434Z,1028.04
2018-09-26T10:17:50.448Z,1028.04
2018-09-26T10:18:50.420Z,1028.06
2018-09-26T10:19:50.412Z,1028.04
2018-09-26T10:20:50.395Z,1027.99
2018-09-26T10:21:50.404Z,1027.93
2018-09-26T10:22:50.429Z,1027.93
2018-09-26T10:23:50.359Z,1027.87
2018-09-26T10:24:50.359Z,1027.86
2018-09-26T10:25:50.351Z,1027.91
2018-09-26T10:26:50.326Z,1027.94
2018-09-26T10:27:50.316Z,1027.91
2018-09-26T10:28:50.334Z,1027.89
2018-09-26T10:29:50.291Z,1027.90
2018-09-26T10:30:50.293Z,1027.87
2018-09-26T10:31:50.270Z,1027.87
2018-09-26T10:32:50.258Z,1027.88
2018-09-26T10:33:50.273Z,1027.89
2018-09-26T10:34:50.319Z,1027.89
2018-09-26T10:35:50.225Z,1027.88
2018-09-26T10:36:50.242Z,1027.90
2018-09-26T10:37:50.211Z,1027.88
2018-09-26T10:38:50.231Z,1027.94
2018-09-26T10:39:50.186Z,1027.92
2018-09-26T10:40:50.209Z,1027.96
2018-09-26T10:41:50.160Z,1027.87
2018-09-26T10:42:50.166Z,1027.85
2018-09-26T10:43:50.138Z,1027.81
2018-09-26T10:44:50.175Z,1027.83
2018-09-26T10:45:50.116Z,1027.89
2018-09-26T10:46:50.116Z,1027.84
2018-09-26T10:47:50.095Z,1027.87
2018-09-26T10:48:50.113Z,1027.82
2018-09-26T10:49:50.076Z,1027.83
2018-09-26T10:50:50.068Z,1027.76
2018-09-26T10:51:50.055Z,1027.80
2018-09-26T10:52:50.041Z,1027.77
2018-09-26T10:53:50.028Z,1027.80
2018-09-26T10:54:50.067Z,1027.78
2018-09-26T10:55:50.006Z,1027.81
2018-09-26T10:56:49.998Z,1027.80
2018-09-26T10:57:49.988Z,1027.87
2018-09-26T10:58:49.977Z,1027.83
2018-09-26T10:59:49.988Z,1027.88
2018-09-26T11:00:49.953Z,1027.84
2018-09-26T11:01:49.957Z,1027.80
2018-09-26T11:02:49.934Z,1027.78
2018-09-26T11:03:50.024Z,1027.77
2018-09-26T11:04:49.934Z,1027.78
2018-09-26T11:05:49.938Z,1027.72
2018-09-26T11:06:49.889Z,1027.71
2018-09-26T11:07:49.881Z,1027.71
2018-09-26T11:08:49.911Z,1027.72
2018-09-26T11:09:49.903Z,1027.72
2018-09-26T11:10:49.847Z,1027.75
2018-09-26T11:11:49.844Z,1027.77
2018-09-26T11:12:49.826Z,1027.71
2018-09-26T11:13:49.815Z,1027.69
2018-09-26T11:14:49.830Z,1027.74
2018-09-26T11:15:49.853Z,1027.73
2018-09-26T11:16:49.801Z,1027.73
2018-09-26T11:17:49.787Z,1027.73
2018-09-26T11:18:49.782Z,1027.66
2018-09-26T11:19:49.789Z,1027.69
2018-09-26T11:20:49.737Z,1027.70
2018-09-26T11:21:49.726Z,1027.69
2018-09-26T11:22:49.720Z,1027.70
2018-09-26T11:23:49.718Z,1027.67
2018-09-26T11:24:49.696Z,1027.67
2018-09-26T11:25:49.725Z,1027.68
2018-09-26T11:26:49.670Z,1027.67
2018-09-26T11:27:49.682Z,1027.65
2018-09-26T11:28:49.669Z,1027.72
2018-09-26T11:29:49.643Z,1027.68
2018-09-26T11:30:49.663Z,1027.65
2018-09-26T11:31:49.693Z,1027.67
2018-09-26T11:32:49.613Z,1027.62
2018-09-26T11:33:49.692Z,1027.65
2018-09-26T11:34:49.594Z,1027.64
2018-09-26T11:35:49.627Z,1027.63
2018-09-26T11:36:49.569Z,1027.64
2018-09-26T11:37:49.565Z,1027.62
2018-09-26T11:38:49.545Z,1027.61
2018-09-26T11:39:49.544Z,1027.55
2018-09-26T11:40:49.537Z,1027.57
2018-09-26T11:41:49.539Z,1027.55
2018-09-26T11:42:49.501Z,1027.57
2018-09-26T11:43:49.489Z,1027.53
2018-09-26T11:44:49.555Z,1027.55
2018-09-26T11:45:49.468Z,1027.51
2018-09-26T11:46:49.483Z,1027.48
2018-09-26T11:47:49.499Z,1027.47
2018-09-26T11:48:49.460Z,1027.45
2018-09-26T11:49:49.422Z,1027.44
2018-09-26T11:50:49.422Z,1027.47
2018-09-26T11:51:49.430Z,1027.45
2018-09-26T11:52:49.394Z,1027.42
2018-09-26T11:53:49.394Z,1027.36
2018-09-26T11:54:49.386Z,1027.37
2018-09-26T11:55:49.361Z,1027.37
2018-09-26T11:56:49.349Z,1027.32
2018-09-26T11:57:49.361Z,1027.31
2018-09-26T11:58:49.393Z,1027.31
2018-09-26T11:59:49.315Z,1027.29
2018-09-26T12:00:49.320Z,1027.33
2018-09-26T12:01:49.344Z,1027.26
2018-09-26T12:02:49.318Z,1027.27
2018-09-26T12:03:49.292Z,1027.25
2018-09-26T12:04:49.261Z,1027.25
2018-09-26T12:05:49.252Z,1027.27